PADK Airport Information

Runway Information
Runway 05 Length 7790 ft width 200 ft
Elevation 17 ft Threshold ft Heading 61
Runway 23 Length 7790 ft Width 200 ft
Elevation 15 ft Threshold ft Heading 241
Runway 18 Length 7605 ft width 200 ft
Elevation 6 ft Threshold ft Heading 185
Runway 36 Length 7605 ft Width 200 ft
Elevation 4 ft Threshold ft Heading 5
Airport Frequencies
Airport Navaids
Type NDB-DME Name Mount Moffett Frequency 530 KHZ
Type TACAN Name Adak Frequency 113000 KHZ
Airport Weather Information & NOTAM
ADDS - METARS form results

(0156 UTC 01 July 2022)
Data provider http://aviationweather.gov/metar/data/
 
METAR text: PADK 010111Z AUTO 01007KT BKN011 OVC017 09/06 A2955 RMK AO2 PWINO
Conditions at: PADK (ADAK NAS , AK, US) observed 0111 UTC 01 July 2022
Temperature: 9.0°C (48°F)
Dewpoint: 6.0°C (43°F) [RH = 81%]
Pressure (altimeter): 29.55 inches Hg (1000.8 mb)
Winds: from the N (10 degrees) at 8 MPH (7 knots; 3.6 m/s)
Visibility: missing
Ceiling: 1100 feet AGL
Clouds: broken clouds at 1100 feet AGL
overcast cloud deck at 1700 feet AGL
Weather: automated observation with no human augmentation;
there may or may not be significant weather present at this time